DLH561 FNLU-EDDF
Flight info
| Callsign | DLH561 |
|---|---|
| Flight time | N/A |
| Altitude | 24000 |
| Route | VNA DCT EPLAT R526 EXITO/N0478F360 UR526 LIKAD UY339 MESIN UG861 DLA UR854 KOKAM UA604 OBUDU/N0471F380 UA604 AS UR978 CSO UA605 CIRTA DCT BUKID DCT GARPU DCT PIGOS DCT EKSID DCT NOSTA DCT NOPMU DCT ABESI DCT LADOL T163 EMPAX EMPAX5D |
| Aircraft | A343/H-SDE2E3FGHIJ4J5M1RWXY/LB1D1 |
Departure
| Time | 2026-04-27 10:05 |
|---|---|
| Airport | Quatro de Fevereiro International Airport (FNLU) |
Arrival
| Time | N/A |
|---|---|
| Airport | Frankfurt Main Airport (EDDF) |
| Time | Latitude | Longitude | Altitude | Speed | Heading |
|---|---|---|---|---|---|
| 2026-04-27 09:54 | -8.84903 | 13.23703 | 245 ft | 0 kts | 332° |
| 2026-04-27 10:02 | -8.84909 | 13.23676 | 245 ft | 8 kts | 253° |
| 2026-04-27 10:02 | -8.84928 | 13.23657 | 245 ft | 1 kts | 179° |
| 2026-04-27 10:02 | -8.84950 | 13.23662 | 245 ft | 10 kts | 173° |
| 2026-04-27 10:02 | -8.85025 | 13.23603 | 245 ft | 17 kts | 243° |
| 2026-04-27 10:03 | -8.85077 | 13.23555 | 245 ft | 3 kts | 165° |
| 2026-04-27 10:03 | -8.85163 | 13.23606 | 246 ft | 27 kts | 139° |
| 2026-04-27 10:03 | -8.85308 | 13.23738 | 246 ft | 27 kts | 136° |
| 2026-04-27 10:03 | -8.85410 | 13.23806 | 249 ft | 3 kts | 202° |
| 2026-04-27 10:04 | -8.85440 | 13.23777 | 249 ft | 10 kts | 226° |
| 2026-04-27 10:04 | -8.85605 | 13.23604 | 251 ft | 60 kts | 225° |
| 2026-04-27 10:04 | -8.86009 | 13.23175 | 247 ft | 107 kts | 226° |
| 2026-04-27 10:04 | -8.86612 | 13.22530 | 247 ft | 144 kts | 226° |
| 2026-04-27 10:05 | -8.87373 | 13.21716 | 370 ft | 164 kts | 229° |
| 2026-04-27 10:05 | -8.88073 | 13.20855 | 749 ft | 166 kts | 226° |
| 2026-04-27 10:05 | -8.88587 | 13.19723 | 827 ft | 190 kts | 263° |
| 2026-04-27 10:05 | -8.88190 | 13.18426 | 1116 ft | 204 kts | 314° |
| 2026-04-27 10:06 | -8.86925 | 13.17788 | 1555 ft | 213 kts | 358° |
| 2026-04-27 10:06 | -8.85468 | 13.18195 | 1728 ft | 233 kts | 40° |
| 2026-04-27 10:06 | -8.84479 | 13.19539 | 2062 ft | 247 kts | 64° |
| 2026-04-27 10:06 | -8.83408 | 13.20947 | 2619 ft | 258 kts | 48° |
| 2026-04-27 10:07 | -8.81996 | 13.22092 | 3374 ft | 265 kts | 30° |
| 2026-04-27 10:07 | -8.80213 | 13.22581 | 4115 ft | 271 kts | 1° |
| 2026-04-27 10:07 | -8.78345 | 13.22353 | 4913 ft | 272 kts | 348° |
| 2026-04-27 10:07 | -8.76552 | 13.21780 | 5572 ft | 276 kts | 341° |
| 2026-04-27 10:08 | -8.74764 | 13.21013 | 6186 ft | 282 kts | 339° |
| 2026-04-27 10:08 | -8.72968 | 13.20172 | 6776 ft | 287 kts | 339° |
| 2026-04-27 10:08 | -8.71147 | 13.19317 | 7409 ft | 290 kts | 339° |
| 2026-04-27 10:08 | -8.69305 | 13.18477 | 8057 ft | 291 kts | 340° |
| 2026-04-27 10:09 | -8.67438 | 13.17655 | 8707 ft | 294 kts | 340° |
| 2026-04-27 10:09 | -8.65547 | 13.16845 | 9359 ft | 297 kts | 341° |
| 2026-04-27 10:09 | -8.63631 | 13.16040 | 10003 ft | 299 kts | 341° |
| 2026-04-27 10:09 | -8.61673 | 13.15227 | 10385 ft | 311 kts | 341° |
| 2026-04-27 10:10 | -8.59616 | 13.14379 | 10611 ft | 327 kts | 341° |
| 2026-04-27 10:10 | -8.57456 | 13.13490 | 10826 ft | 343 kts | 341° |
| 2026-04-27 10:10 | -8.55201 | 13.12560 | 11041 ft | 357 kts | 341° |
| 2026-04-27 10:10 | -8.52860 | 13.11588 | 11229 ft | 371 kts | 340° |
| 2026-04-27 10:11 | -8.50442 | 13.10578 | 11530 ft | 380 kts | 340° |
| 2026-04-27 10:11 | -8.47978 | 13.09544 | 11968 ft | 385 kts | 340° |
| 2026-04-27 10:11 | -8.45495 | 13.08501 | 12457 ft | 388 kts | 340° |
| 2026-04-27 10:11 | -8.42998 | 13.07453 | 12959 ft | 390 kts | 340° |
| 2026-04-27 10:12 | -8.40481 | 13.06399 | 13453 ft | 393 kts | 340° |
| 2026-04-27 10:12 | -8.37952 | 13.05343 | 13946 ft | 395 kts | 340° |
| 2026-04-27 10:12 | -8.35398 | 13.04278 | 14384 ft | 397 kts | 340° |
| 2026-04-27 10:12 | -8.32836 | 13.03210 | 14817 ft | 400 kts | 340° |
| 2026-04-27 10:13 | -8.30255 | 13.02135 | 15238 ft | 402 kts | 340° |
| 2026-04-27 10:13 | -8.27654 | 13.01052 | 15692 ft | 405 kts | 340° |
| 2026-04-27 10:13 | -8.25929 | 13.00333 | 15969 ft | 406 kts | 340° |
| 2026-04-27 10:13 | -8.22417 | 12.98870 | 16556 ft | 410 kts | 340° |
| 2026-04-27 10:14 | -8.20666 | 12.98142 | 16836 ft | 411 kts | 340° |
| 2026-04-27 10:14 | -8.18015 | 12.97038 | 17281 ft | 414 kts | 340° |
| 2026-04-27 10:14 | -8.15346 | 12.95927 | 17725 ft | 416 kts | 340° |
| 2026-04-27 10:14 | -8.11784 | 12.94444 | 18303 ft | 419 kts | 339° |
| 2026-04-27 10:15 | -8.09081 | 12.93319 | 18678 ft | 422 kts | 340° |
| 2026-04-27 10:15 | -8.07235 | 12.92551 | 18923 ft | 424 kts | 340° |
| 2026-04-27 10:15 | -8.04536 | 12.91428 | 19270 ft | 427 kts | 340° |
| 2026-04-27 10:15 | -8.01743 | 12.90266 | 19641 ft | 430 kts | 340° |
| 2026-04-27 10:16 | -7.99007 | 12.89128 | 19997 ft | 432 kts | 340° |
| 2026-04-27 10:16 | -7.96180 | 12.87953 | 20354 ft | 435 kts | 340° |
| 2026-04-27 10:16 | -7.93414 | 12.86802 | 20704 ft | 438 kts | 340° |
| 2026-04-27 10:16 | -7.90552 | 12.85612 | 21047 ft | 440 kts | 340° |
| 2026-04-27 10:17 | -7.87747 | 12.84446 | 21383 ft | 443 kts | 340° |
| 2026-04-27 10:17 | -7.84893 | 12.83260 | 21716 ft | 445 kts | 340° |
| 2026-04-27 10:17 | -7.82022 | 12.82067 | 22054 ft | 448 kts | 340° |
| 2026-04-27 10:17 | -7.79133 | 12.80867 | 22372 ft | 450 kts | 340° |
| 2026-04-27 10:18 | -7.76231 | 12.79661 | 22695 ft | 453 kts | 340° |
| 2026-04-27 10:18 | -7.73307 | 12.78447 | 23015 ft | 455 kts | 340° |
| 2026-04-27 10:18 | -7.70373 | 12.77228 | 23323 ft | 458 kts | 340° |
| 2026-04-27 10:18 | -7.67419 | 12.76001 | 23631 ft | 460 kts | 340° |
| 2026-04-27 10:19 | -7.64452 | 12.74769 | 23890 ft | 462 kts | 340° |
| 2026-04-27 10:19 | -7.61472 | 12.73532 | 24166 ft | 464 kts | 340° |
| 2026-04-27 10:19 | -7.58482 | 12.72290 | 24440 ft | 466 kts | 340° |
| 2026-04-27 10:19 | -7.55480 | 12.71041 | 24715 ft | 467 kts | 340° |
| 2026-04-27 10:20 | -7.52468 | 12.69788 | 24986 ft | 469 kts | 340° |
| 2026-04-27 10:20 | -7.49448 | 12.68531 | 25257 ft | 471 kts | 340° |
| 2026-04-27 10:20 | -7.46412 | 12.67267 | 25522 ft | 473 kts | 340° |
| 2026-04-27 10:20 | -7.43368 | 12.66001 | 25795 ft | 474 kts | 340° |
| 2026-04-27 10:21 | -7.40314 | 12.64731 | 26075 ft | 476 kts | 340° |
| 2026-04-27 10:21 | -7.37249 | 12.63456 | 26372 ft | 477 kts | 340° |
| 2026-04-27 10:21 | -7.34177 | 12.62179 | 26636 ft | 479 kts | 340° |
| 2026-04-27 10:21 | -7.31094 | 12.60898 | 26873 ft | 481 kts | 340° |
| 2026-04-27 10:22 | -7.27995 | 12.59611 | 27124 ft | 482 kts | 340° |
| 2026-04-27 10:22 | -7.24888 | 12.58320 | 27379 ft | 484 kts | 340° |
| 2026-04-27 10:22 | -7.21769 | 12.57024 | 27640 ft | 486 kts | 340° |
| 2026-04-27 10:22 | -7.18635 | 12.55722 | 27862 ft | 488 kts | 340° |
| 2026-04-27 10:23 | -7.15493 | 12.54418 | 28116 ft | 490 kts | 340° |